sensor_id;sensor_type;location;lat;lon;timestamp;pressure;altitude;pressure_sealevel;temperature;humidity
27294;BME280;14785;52.556;13.430;2023-12-20T00:00:53;-19637.31;;;7.90;100.00
27294;BME280;14785;52.556;13.430;2023-12-20T00:03:20;-19633.81;;;7.78;100.00
27294;BME280;14785;52.556;13.430;2023-12-20T00:05:47;-19635.34;;;7.83;100.00
27294;BME280;14785;52.556;13.430;2023-12-20T00:08:12;-19636.09;;;7.86;100.00
27294;BME280;14785;52.556;13.430;2023-12-20T00:10:38;-19639.28;;;7.97;100.00
27294;BME280;14785;52.556;13.430;2023-12-20T00:13:03;-19637.16;;;7.90;100.00
27294;BME280;14785;52.556;13.430;2023-12-20T00:15:29;-19635.34;;;7.83;100.00
27294;BME280;14785;52.556;13.430;2023-12-20T00:17:54;-19635.94;;;7.86;100.00
27294;BME280;14785;52.556;13.430;2023-12-20T00:20:19;-19632.91;;;7.75;100.00
27294;BME280;14785;52.556;13.430;2023-12-20T00:22:45;-19631.97;;;7.72;100.00
27294;BME280;14785;52.556;13.430;2023-12-20T00:25:10;-19633.22;;;7.76;100.00
27294;BME280;14785;52.556;13.430;2023-12-20T00:27:35;-19631.97;;;7.72;100.00
27294;BME280;14785;52.556;13.430;2023-12-20T00:30:01;-19633.22;;;7.76;100.00
27294;BME280;14785;52.556;13.430;2023-12-20T00:32:26;-19635.34;;;7.83;100.00
27294;BME280;14785;52.556;13.430;2023-12-20T00:34:51;-19639.28;;;7.97;100.00
27294;BME280;14785;52.556;13.430;2023-12-20T00:37:17;-19636.84;;;7.89;100.00
27294;BME280;14785;52.556;13.430;2023-12-20T00:39:42;-19635.47;;;7.84;100.00
27294;BME280;14785;52.556;13.430;2023-12-20T00:42:08;-19635.94;;;7.86;100.00
27294;BME280;14785;52.556;13.430;2023-12-20T00:44:33;-19637.59;;;7.91;100.00
27294;BME280;14785;52.556;13.430;2023-12-20T00:46:58;-19633.22;;;7.76;100.00
27294;BME280;14785;52.556;13.430;2023-12-20T00:49:24;-19636.84;;;7.89;100.00
27294;BME280;14785;52.556;13.430;2023-12-20T00:51:49;-19633.81;;;7.78;100.00
27294;BME280;14785;52.556;13.430;2023-12-20T00:54:16;-19637.91;;;7.92;100.00
27294;BME280;14785;52.556;13.430;2023-12-20T00:56:41;-19632.91;;;7.75;100.00
27294;BME280;14785;52.556;13.430;2023-12-20T00:59:06;-19634.56;;;7.81;100.00
27294;BME280;14785;52.556;13.430;2023-12-20T01:01:32;-19633.81;;;7.78;100.00
27294;BME280;14785;52.556;13.430;2023-12-20T01:03:59;-19633.22;;;7.76;100.00
27294;BME280;14785;52.556;13.430;2023-12-20T01:06:25;-19630.47;;;7.67;100.00
27294;BME280;14785;52.556;13.430;2023-12-20T01:08:50;-19633.50;;;7.77;100.00
27294;BME280;14785;52.556;13.430;2023-12-20T01:11:15;-19635.03;;;7.82;100.00
27294;BME280;14785;52.556;13.430;2023-12-20T01:13:41;-19631.22;;;7.70;100.00
27294;BME280;14785;52.556;13.430;2023-12-20T01:16:10;-19629.84;;;7.65;100.00
27294;BME280;14785;52.556;13.430;2023-12-20T01:18:35;-19634.13;;;7.79;100.00
27294;BME280;14785;52.556;13.430;2023-12-20T01:21:02;-19630.78;;;7.68;100.00
27294;BME280;14785;52.556;13.430;2023-12-20T01:23:28;-19633.50;;;7.77;100.00
27294;BME280;14785;52.556;13.430;2023-12-20T01:25:53;-19631.84;;;7.72;100.00
27294;BME280;14785;52.556;13.430;2023-12-20T01:28:19;-19631.84;;;7.72;100.00
27294;BME280;14785;52.556;13.430;2023-12-20T01:30:44;-19635.34;;;7.83;100.00
27294;BME280;14785;52.556;13.430;2023-12-20T01:33:10;-19635.94;;;7.86;100.00
27294;BME280;14785;52.556;13.430;2023-12-20T01:35:35;-19631.53;;;7.71;100.00
27294;BME280;14785;52.556;13.430;2023-12-20T01:38:01;-19630.16;;;7.66;100.00
27294;BME280;14785;52.556;13.430;2023-12-20T01:40:26;-19630.78;;;7.68;100.00
27294;BME280;14785;52.556;13.430;2023-12-20T01:43:02;-19628.94;;;7.62;100.00
27294;BME280;14785;52.556;13.430;2023-12-20T01:45:27;-19629.84;;;7.65;100.00
27294;BME280;14785;52.556;13.430;2023-12-20T01:47:54;-19634.72;;;7.81;100.00
27294;BME280;14785;52.556;13.430;2023-12-20T01:50:20;-19631.38;;;7.70;100.00
27294;BME280;14785;52.556;13.430;2023-12-20T01:52:46;-19628.94;;;7.62;100.00
27294;BME280;14785;52.556;13.430;2023-12-20T01:55:13;-19631.38;;;7.70;100.00
27294;BME280;14785;52.556;13.430;2023-12-20T01:57:43;-19630.78;;;7.68;100.00
27294;BME280;14785;52.556;13.430;2023-12-20T02:00:10;-19629.84;;;7.65;100.00
27294;BME280;14785;52.556;13.430;2023-12-20T02:02:39;-19632.59;;;7.74;100.00
27294;BME280;14785;52.556;13.430;2023-12-20T02:05:08;-19633.97;;;7.79;100.00
27294;BME280;14785;52.556;13.430;2023-12-20T02:07:34;-19630.47;;;7.67;100.00
27294;BME280;14785;52.556;13.430;2023-12-20T02:10:00;-19635.19;;;7.83;100.00
27294;BME280;14785;52.556;13.430;2023-12-20T02:12:26;-19641.72;;;8.05;100.00
27294;BME280;14785;52.556;13.430;2023-12-20T02:14:51;-19634.25;;;7.80;100.00
27294;BME280;14785;52.556;13.430;2023-12-20T02:17:17;-19636.84;;;7.89;100.00
27294;BME280;14785;52.556;13.430;2023-12-20T02:19:43;-19631.97;;;7.72;100.00
27294;BME280;14785;52.556;13.430;2023-12-20T02:22:11;-19630.16;;;7.66;100.00
27294;BME280;14785;52.556;13.430;2023-12-20T02:24:37;-19633.50;;;7.77;100.00
27294;BME280;14785;52.556;13.430;2023-12-20T02:27:03;-19627.28;;;7.57;100.00
27294;BME280;14785;52.556;13.430;2023-12-20T02:29:30;-19641.09;;;8.03;100.00
27294;BME280;14785;52.556;13.430;2023-12-20T02:31:56;-19632.28;;;7.73;100.00
27294;BME280;14785;52.556;13.430;2023-12-20T02:34:21;-19626.06;;;7.53;100.00
27294;BME280;14785;52.556;13.430;2023-12-20T02:36:46;-19631.84;;;7.72;100.00
27294;BME280;14785;52.556;13.430;2023-12-20T02:39:12;-19626.50;;;7.54;100.00
27294;BME280;14785;52.556;13.430;2023-12-20T02:41:38;-19630.16;;;7.66;100.00
27294;BME280;14785;52.556;13.430;2023-12-20T02:44:03;-19625.59;;;7.51;100.00
27294;BME280;14785;52.556;13.430;2023-12-20T02:46:29;-19627.13;;;7.56;100.00
27294;BME280;14785;52.556;13.430;2023-12-20T02:48:54;-19632.75;;;7.75;100.00
27294;BME280;14785;52.556;13.430;2023-12-20T02:51:20;-19640.19;;;8.00;100.00
27294;BME280;14785;52.556;13.430;2023-12-20T02:53:45;-19628.94;;;7.62;100.00
27294;BME280;14785;52.556;13.430;2023-12-20T02:56:11;-19642.94;;;8.09;100.00
27294;BME280;14785;52.556;13.430;2023-12-20T02:58:36;-19630.00;;;7.66;100.00
27294;BME280;14785;52.556;13.430;2023-12-20T03:01:02;-19642.78;;;8.08;100.00
27294;BME280;14785;52.556;13.430;2023-12-20T03:03:27;-19633.97;;;7.79;100.00
27294;BME280;14785;52.556;13.430;2023-12-20T03:05:52;-19637.31;;;7.90;100.00
27294;BME280;14785;52.556;13.430;2023-12-20T03:08:18;-19629.84;;;7.65;100.00
27294;BME280;14785;52.556;13.430;2023-12-20T03:10:43;-19635.94;;;7.86;100.00
27294;BME280;14785;52.556;13.430;2023-12-20T03:13:09;-19638.97;;;7.96;100.00
27294;BME280;14785;52.556;13.430;2023-12-20T03:15:34;-19630.78;;;7.68;100.00
27294;BME280;14785;52.556;13.430;2023-12-20T03:17:59;-19634.13;;;7.79;100.00
27294;BME280;14785;52.556;13.430;2023-12-20T03:20:25;-19643.84;;;8.12;100.00
27294;BME280;14785;52.556;13.430;2023-12-20T03:22:53;-19630.31;;;7.67;100.00
27294;BME280;14785;52.556;13.430;2023-12-20T03:25:19;-19628.03;;;7.59;100.00
27294;BME280;14785;52.556;13.430;2023-12-20T03:27:44;-19639.28;;;7.97;100.00
27294;BME280;14785;52.556;13.430;2023-12-20T03:30:09;-19632.91;;;7.75;100.00
27294;BME280;14785;52.556;13.430;2023-12-20T03:32:37;-19634.13;;;7.79;100.00
27294;BME280;14785;52.556;13.430;2023-12-20T03:35:03;-19627.13;;;7.56;100.00
27294;BME280;14785;52.556;13.430;2023-12-20T03:37:28;-19631.38;;;7.70;100.00
27294;BME280;14785;52.556;13.430;2023-12-20T03:39:53;-19632.75;;;7.75;100.00
27294;BME280;14785;52.556;13.430;2023-12-20T03:42:19;-19629.56;;;7.64;100.00
27294;BME280;14785;52.556;13.430;2023-12-20T03:44:44;-19626.81;;;7.55;100.00
27294;BME280;14785;52.556;13.430;2023-12-20T03:47:09;-19625.00;;;7.49;100.00
27294;BME280;14785;52.556;13.430;2023-12-20T03:49:35;-19618.75;;;7.29;100.00
27294;BME280;14785;52.556;13.430;2023-12-20T03:52:02;-19624.38;;;7.47;100.00
27294;BME280;14785;52.556;13.430;2023-12-20T03:54:28;-19628.03;;;7.59;100.00
27294;BME280;14785;52.556;13.430;2023-12-20T03:56:53;-19616.47;;;7.21;100.00
27294;BME280;14785;52.556;13.430;2023-12-20T03:59:19;-19625.91;;;7.52;100.00
27294;BME280;14785;52.556;13.430;2023-12-20T04:01:44;-19628.66;;;7.61;100.00
27294;BME280;14785;52.556;13.430;2023-12-20T04:04:10;-19631.38;;;7.70;100.00
27294;BME280;14785;52.556;13.430;2023-12-20T04:06:36;-19631.97;;;7.72;100.00
27294;BME280;14785;52.556;13.430;2023-12-20T04:09:01;-19625.16;;;7.50;100.00
27294;BME280;14785;52.556;13.430;2023-12-20T04:11:26;-19625.59;;;7.51;100.00
27294;BME280;14785;52.556;13.430;2023-12-20T04:13:52;-19619.53;;;7.31;100.00
27294;BME280;14785;52.556;13.430;2023-12-20T04:16:17;-19615.13;;;7.17;100.00
27294;BME280;14785;52.556;13.430;2023-12-20T04:18:43;-19613.16;;;7.10;100.00
27294;BME280;14785;52.556;13.430;2023-12-20T04:21:08;-19617.41;;;7.24;100.00
27294;BME280;14785;52.556;13.430;2023-12-20T04:23:33;-19617.41;;;7.24;100.00
27294;BME280;14785;52.556;13.430;2023-12-20T04:25:59;-19620.44;;;7.34;100.00
27294;BME280;14785;52.556;13.430;2023-12-20T04:28:24;-19624.69;;;7.48;100.00
27294;BME280;14785;52.556;13.430;2023-12-20T04:30:50;-19621.34;;;7.37;100.00
27294;BME280;14785;52.556;13.430;2023-12-20T04:33:15;-19622.56;;;7.41;100.00
27294;BME280;14785;52.556;13.430;2023-12-20T04:35:41;-19620.44;;;7.34;100.00
27294;BME280;14785;52.556;13.430;2023-12-20T04:38:08;-19611.94;;;7.06;100.00
27294;BME280;14785;52.556;13.430;2023-12-20T04:40:33;-19615.13;;;7.17;100.00
27294;BME280;14785;52.556;13.430;2023-12-20T04:42:59;-19617.84;;;7.26;100.00
27294;BME280;14785;52.556;13.430;2023-12-20T04:45:24;-19607.06;;;6.90;100.00
27294;BME280;14785;52.556;13.430;2023-12-20T04:47:51;-19609.19;;;6.97;100.00
27294;BME280;14785;52.556;13.430;2023-12-20T04:50:16;-19604.94;;;6.83;100.00
27294;BME280;14785;52.556;13.430;2023-12-20T04:52:42;-19607.22;;;6.91;100.00
27294;BME280;14785;52.556;13.430;2023-12-20T04:55:07;-19605.09;;;6.84;100.00
27294;BME280;14785;52.556;13.430;2023-12-20T04:57:34;-19611.63;;;7.05;100.00
27294;BME280;14785;52.556;13.430;2023-12-20T04:59:59;-19605.84;;;6.86;100.00
27294;BME280;14785;52.556;13.430;2023-12-20T05:02:25;-19610.41;;;7.01;100.00
27294;BME280;14785;52.556;13.430;2023-12-20T05:04:50;-19618.00;;;7.26;100.00
27294;BME280;14785;52.556;13.430;2023-12-20T05:07:15;-19613.75;;;7.12;100.00
27294;BME280;14785;52.556;13.430;2023-12-20T05:09:41;-19626.50;;;7.54;100.00
27294;BME280;14785;52.556;13.430;2023-12-20T05:12:07;-19615.28;;;7.17;100.00
27294;BME280;14785;52.556;13.430;2023-12-20T05:14:32;-19618.00;;;7.26;100.00
27294;BME280;14785;52.556;13.430;2023-12-20T05:16:58;-19605.84;;;6.86;100.00
27294;BME280;14785;52.556;13.430;2023-12-20T05:19:24;-19613.91;;;7.13;100.00
27294;BME280;14785;52.556;13.430;2023-12-20T05:21:49;-19605.69;;;6.86;100.00
27294;BME280;14785;52.556;13.430;2023-12-20T05:24:14;-19610.09;;;7.00;100.00
27294;BME280;14785;52.556;13.430;2023-12-20T05:26:40;-19607.97;;;6.93;100.00
27294;BME280;14785;52.556;13.430;2023-12-20T05:29:05;-19607.38;;;6.91;100.00
27294;BME280;14785;52.556;13.430;2023-12-20T05:31:31;-19602.81;;;6.76;100.00
27294;BME280;14785;52.556;13.430;2023-12-20T05:33:56;-19599.91;;;6.67;100.00
27294;BME280;14785;52.556;13.430;2023-12-20T05:36:22;-19597.94;;;6.60;100.00
27294;BME280;14785;52.556;13.430;2023-12-20T05:38:47;-19602.19;;;6.74;100.00
27294;BME280;14785;52.556;13.430;2023-12-20T05:41:13;-19601.28;;;6.71;100.00
27294;BME280;14785;52.556;13.430;2023-12-20T05:43:39;-19599.16;;;6.64;100.00
27294;BME280;14785;52.556;13.430;2023-12-20T05:46:04;-19600.06;;;6.67;100.00
27294;BME280;14785;52.556;13.430;2023-12-20T05:48:30;-19601.91;;;6.73;100.00
27294;BME280;14785;52.556;13.430;2023-12-20T05:50:55;-19597.50;;;6.59;100.00
27294;BME280;14785;52.556;13.430;2023-12-20T05:53:20;-19598.41;;;6.62;100.00
27294;BME280;14785;52.556;13.430;2023-12-20T05:55:46;-19600.69;;;6.69;100.00
27294;BME280;14785;52.556;13.430;2023-12-20T05:58:11;-19596.56;;;6.56;100.00
27294;BME280;14785;52.556;13.430;2023-12-20T06:00:36;-19601.91;;;6.73;100.00
27294;BME280;14785;52.556;13.430;2023-12-20T06:03:02;-19595.34;;;6.52;100.00
27294;BME280;14785;52.556;13.430;2023-12-20T06:05:30;-19602.03;;;6.74;100.00
27294;BME280;14785;52.556;13.430;2023-12-20T06:07:55;-19598.56;;;6.62;100.00
27294;BME280;14785;52.556;13.430;2023-12-20T06:10:22;-19592.78;;;6.43;100.00
27294;BME280;14785;52.556;13.430;2023-12-20T06:12:48;-19593.69;;;6.46;100.00
27294;BME280;14785;52.556;13.430;2023-12-20T06:15:15;-19591.25;;;6.38;100.00
27294;BME280;14785;52.556;13.430;2023-12-20T06:17:40;-19593.69;;;6.46;100.00
27294;BME280;14785;52.556;13.430;2023-12-20T06:20:07;-19595.66;;;6.53;100.00
27294;BME280;14785;52.556;13.430;2023-12-20T06:22:34;-19596.44;;;6.55;100.00
27294;BME280;14785;52.556;13.430;2023-12-20T06:24:59;-19591.56;;;6.39;100.00
27294;BME280;14785;52.556;13.430;2023-12-20T06:27:25;-19593.06;;;6.44;100.00
27294;BME280;14785;52.556;13.430;2023-12-20T06:29:50;-19592.63;;;6.43;100.00
27294;BME280;14785;52.556;13.430;2023-12-20T06:32:15;-19593.38;;;6.45;100.00
27294;BME280;14785;52.556;13.430;2023-12-20T06:34:41;-19593.69;;;6.46;100.00
27294;BME280;14785;52.556;13.430;2023-12-20T06:37:06;-19589.44;;;6.32;100.00
27294;BME280;14785;52.556;13.430;2023-12-20T06:39:32;-19590.34;;;6.35;100.00
27294;BME280;14785;52.556;13.430;2023-12-20T06:41:59;-19597.03;;;6.57;100.00
27294;BME280;14785;52.556;13.430;2023-12-20T06:44:24;-19595.50;;;6.52;100.00
27294;BME280;14785;52.556;13.430;2023-12-20T06:46:50;-19590.78;;;6.37;100.00
27294;BME280;14785;52.556;13.430;2023-12-20T06:49:15;-19590.94;;;6.37;100.00
27294;BME280;14785;52.556;13.430;2023-12-20T06:51:40;-19592.16;;;6.41;100.00
27294;BME280;14785;52.556;13.430;2023-12-20T06:54:06;-19593.69;;;6.46;100.00
27294;BME280;14785;52.556;13.430;2023-12-20T06:56:32;-19595.81;;;6.53;100.00
27294;BME280;14785;52.556;13.430;2023-12-20T06:58:57;-19593.38;;;6.45;100.00
27294;BME280;14785;52.556;13.430;2023-12-20T07:01:22;-19595.50;;;6.52;100.00
27294;BME280;14785;52.556;13.430;2023-12-20T07:03:49;-19591.72;;;6.40;100.00
27294;BME280;14785;52.556;13.430;2023-12-20T07:06:14;-19595.34;;;6.52;100.00
27294;BME280;14785;52.556;13.430;2023-12-20T07:08:41;-19599.31;;;6.65;100.00
27294;BME280;14785;52.556;13.430;2023-12-20T07:11:07;-19591.88;;;6.40;100.00
27294;BME280;14785;52.556;13.430;2023-12-20T07:13:32;-19593.84;;;6.47;100.00
27294;BME280;14785;52.556;13.430;2023-12-20T07:15:58;-19594.44;;;6.49;100.00
27294;BME280;14785;52.556;13.430;2023-12-20T07:18:23;-19591.09;;;6.38;100.00
27294;BME280;14785;52.556;13.430;2023-12-20T07:20:49;-19598.84;;;6.63;100.00
27294;BME280;14785;52.556;13.430;2023-12-20T07:23:14;-19597.63;;;6.59;100.00
27294;BME280;14785;52.556;13.430;2023-12-20T07:25:39;-19596.13;;;6.54;100.00
27294;BME280;14785;52.556;13.430;2023-12-20T07:28:05;-19594.75;;;6.50;100.00
27294;BME280;14785;52.556;13.430;2023-12-20T07:30:31;-19594.16;;;6.48;100.00
27294;BME280;14785;52.556;13.430;2023-12-20T07:32:56;-19599.78;;;6.66;100.00
27294;BME280;14785;52.556;13.430;2023-12-20T07:35:23;-19597.03;;;6.57;100.00
27294;BME280;14785;52.556;13.430;2023-12-20T07:37:49;-19597.03;;;6.57;100.00
27294;BME280;14785;52.556;13.430;2023-12-20T07:40:14;-19598.41;;;6.62;100.00
27294;BME280;14785;52.556;13.430;2023-12-20T07:42:42;-19596.44;;;6.55;100.00
27294;BME280;14785;52.556;13.430;2023-12-20T07:45:07;-19596.56;;;6.56;100.00
27294;BME280;14785;52.556;13.430;2023-12-20T07:47:34;-19598.84;;;6.63;100.00
27294;BME280;14785;52.556;13.430;2023-12-20T07:49:59;-19597.78;;;6.60;100.00
27294;BME280;14785;52.556;13.430;2023-12-20T07:52:25;-19598.09;;;6.61;100.00
27294;BME280;14785;52.556;13.430;2023-12-20T07:54:51;-19601.13;;;6.71;100.00
27294;BME280;14785;52.556;13.430;2023-12-20T07:57:16;-19597.63;;;6.59;100.00
27294;BME280;14785;52.556;13.430;2023-12-20T07:59:42;-19597.94;;;6.60;100.00
27294;BME280;14785;52.556;13.430;2023-12-20T08:02:09;-19604.31;;;6.81;100.00
27294;BME280;14785;52.556;13.430;2023-12-20T08:04:34;-19597.94;;;6.60;100.00
27294;BME280;14785;52.556;13.430;2023-12-20T08:07:00;-19601.59;;;6.72;100.00
27294;BME280;14785;52.556;13.430;2023-12-20T08:09:25;-19599.63;;;6.66;100.00
27294;BME280;14785;52.556;13.430;2023-12-20T08:11:51;-19605.09;;;6.84;100.00
27294;BME280;14785;52.556;13.430;2023-12-20T08:14:16;-19599.91;;;6.67;100.00
27294;BME280;14785;52.556;13.430;2023-12-20T08:16:41;-19599.16;;;6.64;100.00
27294;BME280;14785;52.556;13.430;2023-12-20T08:19:07;-19599.47;;;6.65;100.00
27294;BME280;14785;52.556;13.430;2023-12-20T08:21:33;-19597.03;;;6.57;100.00
27294;BME280;14785;52.556;13.430;2023-12-20T08:23:58;-19595.81;;;6.53;100.00
27294;BME280;14785;52.556;13.430;2023-12-20T08:26:26;-19600.06;;;6.67;100.00
27294;BME280;14785;52.556;13.430;2023-12-20T08:28:51;-19599.78;;;6.66;100.00
27294;BME280;14785;52.556;13.430;2023-12-20T08:31:18;-19599.63;;;6.66;100.00
27294;BME280;14785;52.556;13.430;2023-12-20T08:33:44;-19596.72;;;6.56;100.00
27294;BME280;14785;52.556;13.430;2023-12-20T08:36:11;-19603.72;;;6.79;100.00
27294;BME280;14785;52.556;13.430;2023-12-20T08:38:36;-19603.41;;;6.78;100.00
27294;BME280;14785;52.556;13.430;2023-12-20T08:41:02;-19600.53;;;6.69;100.00
27294;BME280;14785;52.556;13.430;2023-12-20T08:43:30;-19601.59;;;6.72;100.00
27294;BME280;14785;52.556;13.430;2023-12-20T08:45:56;-19605.69;;;6.86;100.00
27294;BME280;14785;52.556;13.430;2023-12-20T08:48:21;-19601.91;;;6.73;100.00
27294;BME280;14785;52.556;13.430;2023-12-20T08:50:47;-19611.31;;;7.04;100.00
27294;BME280;14785;52.556;13.430;2023-12-20T08:53:14;-19607.22;;;6.91;100.00
27294;BME280;14785;52.556;13.430;2023-12-20T08:55:40;-19610.56;;;7.02;100.00
27294;BME280;14785;52.556;13.430;2023-12-20T08:58:06;-19602.97;;;6.77;100.00
27294;BME280;14785;52.556;13.430;2023-12-20T09:00:33;-19604.63;;;6.82;100.00
27294;BME280;14785;52.556;13.430;2023-12-20T09:02:59;-19605.84;;;6.86;100.00
27294;BME280;14785;52.556;13.430;2023-12-20T09:05:24;-19610.25;;;7.01;100.00
27294;BME280;14785;52.556;13.430;2023-12-20T09:07:50;-19607.22;;;6.91;100.00
27294;BME280;14785;52.556;13.430;2023-12-20T09:10:16;-19611.31;;;7.04;100.00
27294;BME280;14785;52.556;13.430;2023-12-20T09:12:47;-19613.16;;;7.10;100.00
27294;BME280;14785;52.556;13.430;2023-12-20T09:15:13;-19618.31;;;7.27;100.00
27294;BME280;14785;52.556;13.430;2023-12-20T09:17:38;-19614.06;;;7.13;100.00
27294;BME280;14785;52.556;13.430;2023-12-20T09:20:04;-19614.97;;;7.16;100.00
27294;BME280;14785;52.556;13.430;2023-12-20T09:22:32;-19613.75;;;7.12;100.00
27294;BME280;14785;52.556;13.430;2023-12-20T09:24:57;-19619.69;;;7.32;100.00
27294;BME280;14785;52.556;13.430;2023-12-20T09:27:23;-19613.16;;;7.10;100.00
27294;BME280;14785;52.556;13.430;2023-12-20T09:29:48;-19615.88;;;7.19;100.00
27294;BME280;14785;52.556;13.430;2023-12-20T09:32:14;-19614.66;;;7.15;100.00
27294;BME280;14785;52.556;13.430;2023-12-20T09:34:40;-19614.97;;;7.16;100.00
27294;BME280;14785;52.556;13.430;2023-12-20T09:37:07;-19611.31;;;7.04;100.00
27294;BME280;14785;52.556;13.430;2023-12-20T09:39:33;-19607.53;;;6.92;100.00
27294;BME280;14785;52.556;13.430;2023-12-20T09:42:03;-19611.94;;;7.06;100.00
27294;BME280;14785;52.556;13.430;2023-12-20T09:44:30;-19612.69;;;7.09;100.00
27294;BME280;14785;52.556;13.430;2023-12-20T09:46:56;-19618.31;;;7.27;100.00
27294;BME280;14785;52.556;13.430;2023-12-20T09:49:22;-19619.22;;;7.30;100.00
27294;BME280;14785;52.556;13.430;2023-12-20T09:51:50;-19615.88;;;7.19;100.00
27294;BME280;14785;52.556;13.430;2023-12-20T09:54:21;-19617.56;;;7.25;100.00
27294;BME280;14785;52.556;13.430;2023-12-20T09:56:46;-19620.44;;;7.34;100.00
27294;BME280;14785;52.556;13.430;2023-12-20T09:59:14;-19621.03;;;7.36;100.00
27294;BME280;14785;52.556;13.430;2023-12-20T10:01:40;-19620.13;;;7.33;100.00
27294;BME280;14785;52.556;13.430;2023-12-20T10:04:06;-19618.00;;;7.26;100.00
27294;BME280;14785;52.556;13.430;2023-12-20T10:06:34;-19624.25;;;7.47;100.00
27294;BME280;14785;52.556;13.430;2023-12-20T10:08:59;-19615.88;;;7.19;100.00
27294;BME280;14785;52.556;13.430;2023-12-20T10:11:25;-19617.56;;;7.25;100.00
27294;BME280;14785;52.556;13.430;2023-12-20T10:13:50;-19619.53;;;7.31;100.00
27294;BME280;14785;52.556;13.430;2023-12-20T10:16:15;-19624.69;;;7.48;100.00
27294;BME280;14785;52.556;13.430;2023-12-20T10:18:41;-19623.47;;;7.44;100.00
27294;BME280;14785;52.556;13.430;2023-12-20T10:21:07;-19628.19;;;7.60;100.00
27294;BME280;14785;52.556;13.430;2023-12-20T10:23:35;-19624.53;;;7.48;100.00
27294;BME280;14785;52.556;13.430;2023-12-20T10:26:01;-19626.22;;;7.53;100.00
27294;BME280;14785;52.556;13.430;2023-12-20T10:28:26;-19625.00;;;7.49;100.00
27294;BME280;14785;52.556;13.430;2023-12-20T10:30:55;-19622.25;;;7.40;100.00
27294;BME280;14785;52.556;13.430;2023-12-20T10:33:27;-19621.03;;;7.36;100.00
27294;BME280;14785;52.556;13.430;2023-12-20T10:35:54;-19626.22;;;7.53;100.00
27294;BME280;14785;52.556;13.430;2023-12-20T10:38:20;-19626.66;;;7.55;100.00
27294;BME280;14785;52.556;13.430;2023-12-20T10:40:46;-19624.09;;;7.46;100.00
27294;BME280;14785;52.556;13.430;2023-12-20T10:43:12;-19621.34;;;7.37;100.00
27294;BME280;14785;52.556;13.430;2023-12-20T10:45:38;-19629.09;;;7.63;100.00
27294;BME280;14785;52.556;13.430;2023-12-20T10:48:04;-19622.56;;;7.41;100.00
27294;BME280;14785;52.556;13.430;2023-12-20T10:50:31;-19631.22;;;7.70;100.00
27294;BME280;14785;52.556;13.430;2023-12-20T10:52:57;-19625.91;;;7.52;100.00
27294;BME280;14785;52.556;13.430;2023-12-20T10:55:24;-19628.03;;;7.59;100.00
27294;BME280;14785;52.556;13.430;2023-12-20T10:58:00;-19627.44;;;7.57;100.00
27294;BME280;14785;52.556;13.430;2023-12-20T11:00:26;-19625.31;;;7.50;100.00
27294;BME280;14785;52.556;13.430;2023-12-20T11:02:52;-19626.22;;;7.53;100.00
27294;BME280;14785;52.556;13.430;2023-12-20T11:07:57;-19633.50;;;7.77;100.00
27294;BME280;14785;52.556;13.430;2023-12-20T11:10:49;-19638.81;;;7.95;100.00
27294;BME280;14785;52.556;13.430;2023-12-20T11:13:21;-19641.09;;;8.03;100.00
27294;BME280;14785;52.556;13.430;2023-12-20T11:15:48;-19635.19;;;7.83;100.00
27294;BME280;14785;52.556;13.430;2023-12-20T11:18:14;-19634.41;;;7.80;100.00
27294;BME280;14785;52.556;13.430;2023-12-20T11:20:41;-19628.03;;;7.59;100.00
27294;BME280;14785;52.556;13.430;2023-12-20T11:23:08;-19631.97;;;7.72;100.00
27294;BME280;14785;52.556;13.430;2023-12-20T11:25:53;-19628.94;;;7.62;100.00
27294;BME280;14785;52.556;13.430;2023-12-20T11:28:23;-19628.34;;;7.60;100.00
27294;BME280;14785;52.556;13.430;2023-12-20T11:33:22;-19628.03;;;7.59;100.00
27294;BME280;14785;52.556;13.430;2023-12-20T11:35:48;-19628.50;;;7.61;100.00
27294;BME280;14785;52.556;13.430;2023-12-20T11:38:14;-19627.28;;;7.57;100.00
27294;BME280;14785;52.556;13.430;2023-12-20T11:40:41;-19623.19;;;7.43;100.00
27294;BME280;14785;52.556;13.430;2023-12-20T11:43:07;-19620.59;;;7.35;100.00
27294;BME280;14785;52.556;13.430;2023-12-20T11:45:33;-19629.84;;;7.65;100.00
27294;BME280;14785;52.556;13.430;2023-12-20T11:48:01;-19626.06;;;7.53;100.00
27294;BME280;14785;52.556;13.430;2023-12-20T11:50:27;-19628.94;;;7.62;100.00
27294;BME280;14785;52.556;13.430;2023-12-20T11:52:54;-19627.13;;;7.56;100.00
27294;BME280;14785;52.556;13.430;2023-12-20T11:55:21;-19631.69;;;7.71;100.00
27294;BME280;14785;52.556;13.430;2023-12-20T11:57:46;-19622.56;;;7.41;100.00
27294;BME280;14785;52.556;13.430;2023-12-20T12:00:13;-19627.72;;;7.58;100.00
27294;BME280;14785;52.556;13.430;2023-12-20T12:02:39;-19627.88;;;7.59;100.00
27294;BME280;14785;52.556;13.430;2023-12-20T12:05:05;-19631.53;;;7.71;100.00
27294;BME280;14785;52.556;13.430;2023-12-20T12:07:31;-19633.22;;;7.76;100.00
27294;BME280;14785;52.556;13.430;2023-12-20T12:09:56;-19633.81;;;7.78;100.00
27294;BME280;14785;52.556;13.430;2023-12-20T12:12:22;-19633.06;;;7.76;100.00
27294;BME280;14785;52.556;13.430;2023-12-20T12:14:49;-19633.81;;;7.78;100.00
27294;BME280;14785;52.556;13.430;2023-12-20T12:17:15;-19630.47;;;7.67;100.00
27294;BME280;14785;52.556;13.430;2023-12-20T12:19:41;-19635.94;;;7.86;100.00
27294;BME280;14785;52.556;13.430;2023-12-20T12:22:16;-19633.50;;;7.77;100.00
27294;BME280;14785;52.556;13.430;2023-12-20T12:24:46;-19628.34;;;7.60;100.00
27294;BME280;14785;52.556;13.430;2023-12-20T12:27:15;-19630.16;;;7.66;100.00
27294;BME280;14785;52.556;13.430;2023-12-20T12:29:42;-19630.94;;;7.69;100.00
27294;BME280;14785;52.556;13.430;2023-12-20T12:32:25;-19631.53;;;7.71;100.00
27294;BME280;14785;52.556;13.430;2023-12-20T12:34:51;-19625.47;;;7.51;100.00
27294;BME280;14785;52.556;13.430;2023-12-20T12:37:16;-19624.38;;;7.47;100.00
27294;BME280;14785;52.556;13.430;2023-12-20T12:39:41;-19625.47;;;7.51;100.00